createdAt,value
2018-07-11T00:04:26.047Z,17.70
2018-07-11T00:09:29.394Z,17.60
2018-07-11T00:14:32.788Z,17.60
2018-07-11T00:19:36.217Z,17.60
2018-07-11T00:24:39.633Z,17.50
2018-07-11T00:29:43.090Z,17.50
2018-07-11T00:40:12.084Z,17.40
2018-07-11T00:45:15.505Z,17.40
2018-07-11T00:50:18.908Z,17.50
2018-07-11T00:55:22.341Z,17.50
2018-07-11T01:00:25.689Z,17.50
2018-07-11T01:05:29.060Z,17.60
2018-07-11T01:10:32.492Z,17.60
2018-07-11T01:15:35.933Z,17.70
2018-07-11T01:20:39.365Z,17.60
2018-07-11T01:25:42.786Z,17.70
2018-07-11T01:30:46.176Z,17.70
2018-07-11T01:35:49.545Z,17.60
2018-07-11T01:40:52.950Z,17.60
2018-07-11T01:45:56.314Z,17.60
2018-07-11T01:50:59.798Z,17.60
2018-07-11T01:56:03.233Z,17.60
2018-07-11T02:01:06.854Z,17.60
2018-07-11T02:06:10.292Z,17.60
2018-07-11T02:11:13.787Z,17.50
2018-07-11T02:16:17.178Z,17.50
2018-07-11T02:21:20.602Z,17.40
2018-07-11T02:26:24.003Z,17.50
2018-07-11T02:31:27.799Z,17.40
2018-07-11T02:36:31.193Z,17.30
2018-07-11T02:41:34.622Z,17.30
2018-07-11T02:46:43.297Z,17.30
2018-07-11T02:51:46.744Z,17.20
2018-07-11T03:01:53.180Z,17.20
2018-07-11T03:06:56.592Z,17.20
2018-07-11T03:12:00.017Z,17.30
2018-07-11T03:17:03.436Z,17.30
2018-07-11T03:22:06.839Z,17.20
2018-07-11T03:27:10.305Z,17.20
2018-07-11T03:32:13.688Z,17.20
2018-07-11T03:37:17.107Z,17.20
2018-07-11T03:42:20.527Z,17.20
2018-07-11T03:47:23.915Z,17.20
2018-07-11T03:52:27.295Z,17.20
2018-07-11T03:57:30.687Z,17.20
2018-07-11T04:02:34.048Z,17.20
2018-07-11T04:07:37.388Z,17.30
2018-07-11T04:12:40.741Z,17.30
2018-07-11T04:17:44.103Z,17.20
2018-07-11T04:22:47.476Z,17.30
2018-07-11T04:27:50.923Z,17.30
2018-07-11T04:32:54.301Z,17.30
2018-07-11T04:37:57.861Z,17.30
2018-07-11T04:43:01.357Z,17.20
2018-07-11T04:48:06.378Z,17.30
2018-07-11T04:53:11.322Z,17.30
2018-07-11T04:58:14.704Z,17.30
2018-07-11T05:03:18.098Z,17.40
2018-07-11T05:08:22.457Z,17.40
2018-07-11T05:13:25.804Z,17.40
2018-07-11T05:18:29.163Z,17.40
2018-07-11T05:23:32.548Z,17.40
2018-07-11T05:28:35.946Z,17.40
2018-07-11T05:33:39.328Z,17.40
2018-07-11T05:38:42.732Z,17.40
2018-07-11T05:43:46.116Z,17.40
2018-07-11T05:48:49.525Z,17.40
2018-07-11T05:53:52.920Z,17.50
2018-07-11T05:58:56.302Z,17.50
2018-07-11T06:03:59.652Z,17.60
2018-07-11T06:09:03.145Z,17.60
2018-07-11T06:14:06.510Z,17.70
2018-07-11T06:19:09.952Z,17.80
2018-07-11T06:24:13.332Z,17.90
2018-07-11T06:29:16.724Z,18.10
2018-07-11T06:34:20.104Z,18.20
2018-07-11T06:39:23.530Z,18.40
2018-07-11T06:44:26.896Z,18.60
2018-07-11T06:49:30.360Z,18.70
2018-07-11T06:54:33.724Z,18.80
2018-07-11T06:59:37.087Z,18.90
2018-07-11T07:04:40.501Z,18.90
2018-07-11T07:09:43.853Z,19.00
2018-07-11T07:19:50.429Z,19.00
2018-07-11T07:24:53.789Z,19.10
2018-07-11T07:29:57.172Z,19.20
2018-07-11T07:35:00.549Z,19.20
2018-07-11T07:40:03.972Z,19.30
2018-07-11T07:45:07.396Z,19.30
2018-07-11T07:50:10.894Z,19.40
2018-07-11T07:55:14.530Z,19.60
2018-07-11T08:00:18.019Z,19.60
2018-07-11T08:05:21.457Z,19.70
2018-07-11T08:10:24.941Z,19.80
2018-07-11T08:15:28.357Z,19.80
2018-07-11T08:20:31.795Z,19.90
2018-07-11T08:25:46.707Z,20.00
2018-07-11T08:31:38.446Z,20.10
2018-07-11T08:37:04.144Z,20.30
2018-07-11T08:42:19.077Z,20.50
2018-07-11T08:47:52.702Z,20.60
2018-07-11T08:53:07.388Z,20.70
2018-07-11T09:00:46.036Z,20.80
2018-07-11T09:06:01.972Z,20.80
2018-07-11T09:12:02.933Z,20.90
2018-07-11T09:17:16.224Z,21.10
2018-07-11T09:22:28.764Z,21.40
2018-07-11T09:27:32.213Z,21.70
2018-07-11T09:32:35.607Z,22.00
2018-07-11T09:37:39.077Z,22.30
2018-07-11T09:42:42.516Z,22.60
2018-07-11T09:47:46.152Z,22.70
2018-07-11T09:52:49.660Z,22.80
2018-07-11T09:57:53.107Z,23.00
2018-07-11T10:02:56.603Z,23.20
2018-07-11T10:08:00.042Z,23.40
2018-07-11T10:13:03.447Z,23.50
2018-07-11T10:18:06.894Z,23.60
2018-07-11T10:23:10.380Z,23.50
2018-07-11T10:28:16.660Z,23.40
2018-07-11T10:33:21.189Z,23.10
2018-07-11T10:38:24.561Z,22.90
2018-07-11T10:43:28.012Z,22.60
2018-07-11T10:48:31.444Z,22.40
2018-07-11T10:53:34.893Z,22.20
2018-07-11T10:58:38.348Z,22.00
2018-07-11T11:03:41.759Z,21.80
2018-07-11T11:08:45.177Z,21.70
2018-07-11T11:13:48.812Z,21.70
2018-07-11T11:18:53.783Z,21.60
2018-07-11T11:23:57.249Z,21.60
2018-07-11T11:29:00.722Z,21.50
2018-07-11T11:34:04.225Z,21.50
2018-07-11T11:39:07.731Z,21.50
2018-07-11T11:44:11.116Z,21.50
2018-07-11T11:49:14.594Z,21.50
2018-07-11T11:54:18.013Z,21.60
2018-07-11T11:59:21.407Z,21.50
2018-07-11T12:04:24.842Z,21.60
2018-07-11T12:09:28.369Z,21.70
2018-07-11T12:14:32.244Z,21.70
2018-07-11T12:19:35.822Z,21.80
2018-07-11T12:24:39.293Z,21.90
2018-07-11T12:29:42.691Z,22.00
2018-07-11T12:34:46.176Z,22.20
2018-07-11T12:39:50.017Z,22.50
2018-07-11T12:44:54.505Z,22.80
2018-07-11T12:49:58.696Z,23.10
2018-07-11T12:55:02.208Z,23.50
2018-07-11T13:00:05.727Z,23.80
2018-07-11T13:05:09.196Z,24.10
2018-07-11T13:10:12.651Z,24.20
2018-07-11T13:15:16.109Z,24.30
2018-07-11T13:20:19.509Z,24.50
2018-07-11T13:25:23.287Z,24.50
2018-07-11T13:30:26.790Z,24.60
2018-07-11T13:35:30.209Z,24.60
2018-07-11T13:40:33.696Z,24.60
2018-07-11T13:45:37.151Z,24.50
2018-07-11T13:50:40.627Z,24.40
2018-07-11T13:55:44.160Z,24.40
2018-07-11T14:00:47.580Z,24.40
2018-07-11T14:05:51.055Z,24.30
2018-07-11T14:10:54.529Z,24.20
2018-07-11T14:16:01.365Z,24.20
2018-07-11T14:21:04.752Z,24.10
2018-07-11T14:26:08.839Z,24.00
2018-07-11T14:31:12.307Z,23.90
2018-07-11T14:36:15.769Z,23.80
2018-07-11T14:41:19.197Z,23.70
2018-07-11T14:46:25.357Z,23.50
2018-07-11T14:51:28.947Z,23.40
2018-07-11T14:56:32.350Z,23.30
2018-07-11T15:01:35.785Z,23.20
2018-07-11T15:06:39.255Z,23.10
2018-07-11T15:11:42.724Z,23.00
2018-07-11T15:16:46.185Z,22.80
2018-07-11T15:26:52.839Z,22.60
2018-07-11T15:31:56.191Z,22.50
2018-07-11T15:36:59.691Z,22.40
2018-07-11T15:42:03.904Z,22.40
2018-07-11T15:47:07.732Z,22.30
2018-07-11T15:52:11.231Z,22.30
2018-07-11T15:57:14.647Z,22.30
2018-07-11T16:02:18.377Z,22.20
2018-07-11T16:07:22.776Z,22.20
2018-07-11T16:12:26.367Z,22.20
2018-07-11T16:17:29.761Z,22.20
2018-07-11T16:22:33.696Z,22.10
2018-07-11T16:27:37.164Z,22.10
2018-07-11T16:32:40.620Z,22.10
2018-07-11T16:37:44.060Z,22.00
2018-07-11T16:42:47.457Z,22.00
2018-07-11T16:47:50.900Z,21.90
2018-07-11T16:52:54.578Z,21.70
2018-07-11T16:58:01.769Z,21.60
2018-07-11T17:03:06.463Z,21.50
2018-07-11T17:08:11.984Z,21.40
2018-07-11T17:13:20.810Z,21.20
2018-07-11T17:18:32.560Z,21.10
2018-07-11T17:23:39.028Z,21.00
2018-07-11T17:28:42.424Z,20.80
2018-07-11T17:33:45.944Z,20.70
2018-07-11T17:38:49.405Z,20.70
2018-07-11T17:49:11.364Z,20.40
2018-07-11T17:54:15.078Z,20.40
2018-07-11T18:04:53.264Z,20.20
2018-07-11T18:10:03.857Z,20.20
2018-07-11T18:15:18.784Z,20.10
2018-07-11T18:25:53.221Z,20.00
2018-07-11T18:31:04.919Z,19.90
2018-07-11T18:37:18.544Z,19.90
2018-07-11T18:42:43.639Z,19.90
2018-07-11T18:48:09.701Z,19.80
2018-07-11T18:53:24.336Z,19.80
2018-07-11T18:58:41.876Z,19.80
2018-07-11T19:05:00.115Z,19.80
2018-07-11T19:10:05.654Z,19.90
2018-07-11T19:15:18.621Z,19.80
2018-07-11T19:20:35.964Z,19.80
2018-07-11T19:25:52.541Z,19.90
2018-07-11T19:31:02.270Z,19.90
2018-07-11T19:36:54.552Z,19.90
2018-07-11T19:42:08.183Z,19.80
2018-07-11T19:47:51.438Z,19.80
2018-07-11T19:53:13.906Z,19.70
2018-07-11T19:58:17.309Z,19.70
2018-07-11T20:03:20.752Z,19.60
2018-07-11T20:08:24.161Z,19.60
2018-07-11T20:13:27.569Z,19.60
2018-07-11T20:18:30.932Z,19.60
2018-07-11T20:23:34.321Z,19.60
2018-07-11T20:28:38.556Z,19.60
2018-07-11T20:33:42.001Z,19.60
2018-07-11T20:38:45.350Z,19.60
2018-07-11T20:49:20.062Z,19.60
2018-07-11T20:54:23.459Z,19.60
2018-07-11T20:59:38.424Z,19.60
2018-07-11T21:06:54.984Z,19.60
2018-07-11T21:12:18.102Z,19.60
2018-07-11T21:19:35.010Z,19.50
2018-07-11T21:24:38.360Z,19.60
2018-07-11T21:29:41.737Z,19.50
2018-07-11T21:34:45.090Z,19.50
2018-07-11T21:39:48.416Z,19.50
2018-07-11T21:44:51.852Z,19.60
2018-07-11T21:49:55.264Z,19.60
2018-07-11T21:54:58.661Z,19.60
2018-07-11T22:00:02.013Z,19.70
2018-07-11T22:05:05.449Z,19.70
2018-07-11T22:10:08.827Z,19.70
2018-07-11T22:15:12.218Z,19.70
2018-07-11T22:20:14.520Z,19.80
2018-07-11T22:25:16.814Z,19.80
2018-07-11T22:30:19.149Z,19.80
2018-07-11T22:35:21.450Z,19.80
2018-07-11T22:40:23.748Z,19.80
2018-07-11T22:45:26.026Z,19.80
2018-07-11T22:50:28.546Z,19.70
2018-07-11T22:55:34.273Z,19.70
2018-07-11T23:00:36.557Z,19.70
2018-07-11T23:05:38.858Z,19.70
2018-07-11T23:10:41.164Z,19.70
2018-07-11T23:15:43.465Z,19.70
2018-07-11T23:20:45.749Z,19.70
2018-07-11T23:25:48.057Z,19.60
2018-07-11T23:30:50.337Z,19.60
2018-07-11T23:35:52.625Z,19.60
2018-07-11T23:40:54.914Z,19.60
2018-07-11T23:45:57.375Z,19.50
2018-07-11T23:50:59.657Z,19.50
2018-07-11T23:56:01.961Z,19.50
